Sumise Maru No.20 — JG5478 — position and weather

sailwx.info

Track history (hours):
 
Tides and Currents Weather Stations Pressure Air Temp Water Temp Dewpoint Dewpoint Depression Visibility Wind Speed Wind Dir Waves Ship Positions

Sumise Maru No.20

Last reported at 2018-Jan-20 12:59 UTC. Time now 2018-Jan-20 13:11 UTC.
Position N 34°55' E 140°03'.

Length 117 m; draft 5.3 m.

Type: Cargo ship. MMSI: 431100268.

Date/timePositionNaut miles runAvg speedWind from/ knotsBaromVisibWave heightAir tempDewpointWater temp
2018-Jan-20 12:59N 34°55' E 140°03'1210.8
2018-Jan-20 11:50N 34°52' E 139°49'413.0
2018-Jan-20 11:30N 34°54' E 139°44'611.1
2018-Jan-20 10:59N 34°60' E 139°42'612.1
2018-Jan-20 10:30N 35°05' E 139°44'612.3
2018-Jan-20 10:00N 35°11' E 139°46'611.5
2018-Jan-20 09:30N 35°17' E 139°45'611.6
2018-Jan-20 09:00N 35°22' E 139°42'4 7.1
2018-Jan-20 08:30N 35°26' E 139°41'0 0.0
2018-Jan-20 07:58N 35°26' E 139°41'0 0.0
2018-Jan-20 07:28N 35°26' E 139°41'0 0.0
2018-Jan-20 06:58N 35°26' E 139°41'0 0.0
2018-Jan-20 06:28N 35°26' E 139°41'0 0.0
2018-Jan-20 05:59N 35°26' E 139°41'0 0.0
2018-Jan-20 05:29N 35°26' E 139°41'0 0.0
2018-Jan-20 04:59N 35°26' E 139°41'0 0.0
2018-Jan-20 04:29N 35°26' E 139°41'0 0.0
2018-Jan-20 03:58N 35°26' E 139°41'0 0.0
2018-Jan-20 03:28N 35°26' E 139°41'0 0.0
2018-Jan-20 02:58N 35°26' E 139°41'0 0.0
2018-Jan-20 02:28N 35°26' E 139°41'0 0.0
2018-Jan-20 01:58N 35°26' E 139°41'0 0.0
2018-Jan-20 01:28N 35°26' E 139°41'1 1.6
2018-Jan-20 01:00N 35°25' E 139°42'510.2
2018-Jan-20 00:31N 35°20' E 139°43'611.2
2018-Jan-20 00:00N 35°15' E 139°47'611.5
2018-Jan-19 23:30N 35°10' E 139°46'611.9
2018-Jan-19 22:59N 35°04' E 139°44'612.8
2018-Jan-19 22:30N 34°58' E 139°42'15 9.4
2018-Jan-19 20:57N 34°53' E 139°59'711.6
2018-Jan-19 20:18N 34°56' E 140°08'  
2018-Jan-12 15:00N 34°14' E 135°08'0 0.0
2018-Jan-12 14:30N 34°14' E 135°08'0 0.0
2018-Jan-12 14:00N 34°14' E 135°08'1 1.8
2018-Jan-12 13:30N 34°14' E 135°07'4 8.3
2018-Jan-12 13:01N 34°18' E 135°04'612.7
2018-Jan-12 12:31N 34°24' E 135°04'612.5
2018-Jan-12 12:01N 34°30' E 135°04'611.9
2018-Jan-12 11:30N 34°36' E 135°02'611.8
2018-Jan-12 11:00N 34°36' E 134°55'612.2
2018-Jan-12 10:30N 34°38' E 134°48'612.0
2018-Jan-12 10:00N 34°40' E 134°41'611.5
2018-Jan-12 09:28N 34°42' E 134°34'612.1
2018-Jan-12 09:00N 34°42' E 134°27'5 7.7
2018-Jan-12 08:20N 34°45' E 134°22'0 0.2
2018-Jan-12 07:59N 34°45' E 134°22'0 0.0
2018-Jan-12 07:23N 34°45' E 134°22'0 0.0
2018-Jan-12 06:59N 34°45' E 134°22'0 0.0
2018-Jan-12 06:29N 34°45' E 134°22'0 0.0
2018-Jan-12 05:59N 34°45' E 134°22'0 0.0
2018-Jan-12 05:29N 34°45' E 134°22'0 0.0
2018-Jan-12 04:53N 34°45' E 134°22'0 0.0
2018-Jan-12 04:29N 34°45' E 134°22'0 0.0
2018-Jan-12 03:59N 34°45' E 134°22'0 0.0
2018-Jan-12 03:29N 34°45' E 134°22'0 0.0
2018-Jan-12 02:59N 34°45' E 134°22'0 0.0
2018-Jan-12 02:30N 34°45' E 134°22'3 4.9
2018-Jan-12 01:59N 34°42' E 134°22'4 2.9
2018-Jan-12 00:29N 34°42' E 134°27'711.7
2018-Jan-11 23:56N 34°42' E 134°35'511.2
2018-Jan-11 23:31N 34°41' E 134°41'611.7
2018-Jan-11 23:00N 34°39' E 134°48'611.7
2018-Jan-11 22:30N 34°37' E 134°54'612.9
2018-Jan-11 22:00N 34°37' E 135°02'510.6
2018-Jan-11 21:30N 34°32' E 135°05'612.8
2018-Jan-11 21:00N 34°26' E 135°03'713.0
2018-Jan-11 20:31N 34°19' E 135°00'713.2
2018-Jan-11 20:00N 34°13' E 134°59'612.1
2018-Jan-11 19:31N 34°07' E 134°59'611.8
2018-Jan-11 19:01N 34°01' E 134°60'611.5
2018-Jan-11 18:30N 33°55' E 134°60'510.0
2018-Jan-11 18:00N 33°51' E 135°02'136 9.4
2018-Jan-11 03:32N 34°29' E 137°39'2 9.0
2018-Jan-11 03:20N 34°29' E 137°41'4 9.2
2018-Jan-11 02:51N 34°29' E 137°47'10 8.5
2018-Jan-11 01:43N 34°30' E 137°58'3 8.0
2018-Jan-11 01:20N 34°30' E 138°02'3 8.1
2018-Jan-11 00:58N 34°30' E 138°06'4 7.9
2018-Jan-11 00:28N 34°30' E 138°10'4 7.4
2018-Jan-10 23:55N 34°31' E 138°15'3 8.1
2018-Jan-10 23:30N 34°31' E 138°19'4 8.4
2018-Jan-10 23:00N 34°31' E 138°24'4 8.2
2018-Jan-10 22:30N 34°32' E 138°29'4 7.8
2018-Jan-10 21:57N 34°32' E 138°35'3 7.4
2018-Jan-10 21:29N 34°32' E 138°39'4 7.5
2018-Jan-10 21:00N 34°32' E 138°43'4 7.8
2018-Jan-10 20:30N 34°33' E 138°48'4 7.8
2018-Jan-10 19:58N 34°33' E 138°53'3 7.1
2018-Jan-10 19:30N 34°33' E 138°57'4 8.2
2018-Jan-10 18:59N 34°36' E 139°01'4 8.5
2018-Jan-10 18:30N 34°39' E 139°04'4 8.7
2018-Jan-10 18:00N 34°42' E 139°08'5 8.8
2018-Jan-10 17:28N 34°45' E 139°12'4 8.6
2018-Jan-10 16:59N 34°48' E 139°15'4 9.0
2018-Jan-10 16:30N 34°51' E 139°19'4 8.1
2018-Jan-10 15:58N 34°54' E 139°23'4 7.8
2018-Jan-10 15:30N 34°56' E 139°27'5 9.3
2018-Jan-10 15:00N 34°59' E 139°32'5 9.5
2018-Jan-10 14:30N 35°02' E 139°36'510.1
2018-Jan-10 14:00N 35°05' E 139°41'510.3
2018-Jan-10 13:30N 35°09' E 139°45'510.3
2018-Jan-10 13:00N 35°14' E 139°46'  
Track history (hours):
 
Tides and Currents Weather Stations Pressure Air Temp Water Temp Dewpoint Dewpoint Depression Visibility Wind Speed Wind Dir Waves Ship Positions

Sumise Maru No.20

Last reported at 2018-Jan-20 12:59 UTC. Time now 2018-Jan-20 13:11 UTC.
Position N 34°55' E 140°03'.

Length 117 m; draft 5.3 m.

Type: Cargo ship. MMSI: 431100268.

Date/timePositionNaut miles runAvg speedWind from/ knotsBaromVisibWave heightAir tempDewpointWater temp
2018-Jan-20 12:59N 34°55' E 140°03'1210.8
2018-Jan-20 11:50N 34°52' E 139°49'413.0
2018-Jan-20 11:30N 34°54' E 139°44'611.1
2018-Jan-20 10:59N 34°60' E 139°42'612.1
2018-Jan-20 10:30N 35°05' E 139°44'612.3
2018-Jan-20 10:00N 35°11' E 139°46'611.5
2018-Jan-20 09:30N 35°17' E 139°45'611.6
2018-Jan-20 09:00N 35°22' E 139°42'4 7.1
2018-Jan-20 08:30N 35°26' E 139°41'0 0.0
2018-Jan-20 07:58N 35°26' E 139°41'0 0.0
2018-Jan-20 07:28N 35°26' E 139°41'0 0.0
2018-Jan-20 06:58N 35°26' E 139°41'0 0.0
2018-Jan-20 06:28N 35°26' E 139°41'0 0.0
2018-Jan-20 05:59N 35°26' E 139°41'0 0.0
2018-Jan-20 05:29N 35°26' E 139°41'0 0.0
2018-Jan-20 04:59N 35°26' E 139°41'0 0.0
2018-Jan-20 04:29N 35°26' E 139°41'0 0.0
2018-Jan-20 03:58N 35°26' E 139°41'0 0.0
2018-Jan-20 03:28N 35°26' E 139°41'0 0.0
2018-Jan-20 02:58N 35°26' E 139°41'0 0.0
2018-Jan-20 02:28N 35°26' E 139°41'0 0.0
2018-Jan-20 01:58N 35°26' E 139°41'0 0.0
2018-Jan-20 01:28N 35°26' E 139°41'1 1.6
2018-Jan-20 01:00N 35°25' E 139°42'510.2
2018-Jan-20 00:31N 35°20' E 139°43'611.2
2018-Jan-20 00:00N 35°15' E 139°47'611.5
2018-Jan-19 23:30N 35°10' E 139°46'611.9
2018-Jan-19 22:59N 35°04' E 139°44'612.8
2018-Jan-19 22:30N 34°58' E 139°42'15 9.4
2018-Jan-19 20:57N 34°53' E 139°59'711.6
2018-Jan-19 20:18N 34°56' E 140°08'  
2018-Jan-12 15:00N 34°14' E 135°08'0 0.0
2018-Jan-12 14:30N 34°14' E 135°08'0 0.0
2018-Jan-12 14:00N 34°14' E 135°08'1 1.8
2018-Jan-12 13:30N 34°14' E 135°07'4 8.3
2018-Jan-12 13:01N 34°18' E 135°04'612.7
2018-Jan-12 12:31N 34°24' E 135°04'612.5
2018-Jan-12 12:01N 34°30' E 135°04'611.9
2018-Jan-12 11:30N 34°36' E 135°02'611.8
2018-Jan-12 11:00N 34°36' E 134°55'612.2
2018-Jan-12 10:30N 34°38' E 134°48'612.0
2018-Jan-12 10:00N 34°40' E 134°41'611.5
2018-Jan-12 09:28N 34°42' E 134°34'612.1
2018-Jan-12 09:00N 34°42' E 134°27'5 7.7
2018-Jan-12 08:20N 34°45' E 134°22'0 0.2
2018-Jan-12 07:59N 34°45' E 134°22'0 0.0
2018-Jan-12 07:23N 34°45' E 134°22'0 0.0
2018-Jan-12 06:59N 34°45' E 134°22'0 0.0
2018-Jan-12 06:29N 34°45' E 134°22'0 0.0
2018-Jan-12 05:59N 34°45' E 134°22'0 0.0
2018-Jan-12 05:29N 34°45' E 134°22'0 0.0
2018-Jan-12 04:53N 34°45' E 134°22'0 0.0
2018-Jan-12 04:29N 34°45' E 134°22'0 0.0
2018-Jan-12 03:59N 34°45' E 134°22'0 0.0
2018-Jan-12 03:29N 34°45' E 134°22'0 0.0
2018-Jan-12 02:59N 34°45' E 134°22'0 0.0
2018-Jan-12 02:30N 34°45' E 134°22'3 4.9
2018-Jan-12 01:59N 34°42' E 134°22'4 2.9
2018-Jan-12 00:29N 34°42' E 134°27'711.7
2018-Jan-11 23:56N 34°42' E 134°35'511.2
2018-Jan-11 23:31N 34°41' E 134°41'611.7
2018-Jan-11 23:00N 34°39' E 134°48'611.7
2018-Jan-11 22:30N 34°37' E 134°54'612.9
2018-Jan-11 22:00N 34°37' E 135°02'510.6
2018-Jan-11 21:30N 34°32' E 135°05'612.8
2018-Jan-11 21:00N 34°26' E 135°03'713.0
2018-Jan-11 20:31N 34°19' E 135°00'713.2
2018-Jan-11 20:00N 34°13' E 134°59'612.1
2018-Jan-11 19:31N 34°07' E 134°59'611.8
2018-Jan-11 19:01N 34°01' E 134°60'611.5
2018-Jan-11 18:30N 33°55' E 134°60'510.0
2018-Jan-11 18:00N 33°51' E 135°02'136 9.4
2018-Jan-11 03:32N 34°29' E 137°39'2 9.0
2018-Jan-11 03:20N 34°29' E 137°41'4 9.2
2018-Jan-11 02:51N 34°29' E 137°47'10 8.5
2018-Jan-11 01:43N 34°30' E 137°58'3 8.0
2018-Jan-11 01:20N 34°30' E 138°02'3 8.1
2018-Jan-11 00:58N 34°30' E 138°06'4 7.9
2018-Jan-11 00:28N 34°30' E 138°10'4 7.4
2018-Jan-10 23:55N 34°31' E 138°15'3 8.1
2018-Jan-10 23:30N 34°31' E 138°19'4 8.4
2018-Jan-10 23:00N 34°31' E 138°24'4 8.2
2018-Jan-10 22:30N 34°32' E 138°29'4 7.8
2018-Jan-10 21:57N 34°32' E 138°35'3 7.4
2018-Jan-10 21:29N 34°32' E 138°39'4 7.5
2018-Jan-10 21:00N 34°32' E 138°43'4 7.8
2018-Jan-10 20:30N 34°33' E 138°48'4 7.8
2018-Jan-10 19:58N 34°33' E 138°53'3 7.1
2018-Jan-10 19:30N 34°33' E 138°57'4 8.2
2018-Jan-10 18:59N 34°36' E 139°01'4 8.5
2018-Jan-10 18:30N 34°39' E 139°04'4 8.7
2018-Jan-10 18:00N 34°42' E 139°08'5 8.8
2018-Jan-10 17:28N 34°45' E 139°12'4 8.6
2018-Jan-10 16:59N 34°48' E 139°15'4 9.0
2018-Jan-10 16:30N 34°51' E 139°19'4 8.1
2018-Jan-10 15:58N 34°54' E 139°23'4 7.8
2018-Jan-10 15:30N 34°56' E 139°27'5 9.3
2018-Jan-10 15:00N 34°59' E 139°32'5 9.5
2018-Jan-10 14:30N 35°02' E 139°36'510.1
2018-Jan-10 14:00N 35°05' E 139°41'510.3
2018-Jan-10 13:30N 35°09' E 139°45'510.3
2018-Jan-10 13:00N 35°14' E 139°46'  

Dump ship's entire track history